Algona, Washington
Current Conditions -  °F | °C
As of 2:53 PM on Saturday 20 Dec 2014 (Local Time) from KSEA Reporting Station
Light Rain Light Rain  
Wind Chill: 45°   Ceiling: 2500
Heat Index: 49°   Visibility: 8mi
Dew Point: 46°   Wind: 10mph
Humidity: 90%   Direction: 140°SE
Pressure: 29.5"   Gusts: NA
Location:  47.31°N, 122.266°W
Report Text: KSEA 202253Z 14009KT 8SM -RA BKN025 OVC032 09/08 A2950 RMK AO2 SLP995 P0005 T00940078
Loading
Personal Weather Stations






























Interactive Weather Map New forecast layout! Learn more

10-Day Weather Forecast

Advertisements
Track Severe Weather on mobile